Time;durP1;ratioP1;P1;durP2;ratioP2;P2;SDS_P1;SDS_P2;PMS_P1;PMS_P2;Temp;Humidity;BMP_temperature;BMP_pressure;BME280_temperature;BME280_humidity;BME280_pressure;Samples;Min_cycle;Max_cycle;Signal;HPM_P1;HPM_P2
2022/07/20 00:00:41;;;;;;;11.73;6.10;;;;;24.70;94388.00;;;;7395826;19;20660;-74
2022/07/20 00:03:11;;;;;;;9.25;5.43;;;;;24.70;94389.00;;;;7396646;19;20129;-72
2022/07/20 00:05:43;;;;;;;13.10;6.00;;;;;24.70;94390.00;;;;7398861;19;20152;-71
2022/07/20 00:11:19;;;;;;;7.20;5.43;;;;;24.60;94388.00;;;;7400154;19;20125;-71
2022/07/20 00:11:21;;;;;;;9.90;5.70;;;;;24.60;94381.00;;;;7396519;19;20149;-71
2022/07/20 00:13:57;;;;;;;8.32;5.70;;;;;24.40;94382.00;;;;7397657;19;20144;-71
2022/07/20 00:16:27;;;;;;;8.38;5.35;;;;;24.50;94380.00;;;;7396199;19;20476;-72
2022/07/20 00:18:54;;;;;;;11.07;5.85;;;;;24.50;94373.00;;;;7396244;19;20165;-71
2022/07/20 00:21:29;;;;;;;10.55;5.88;;;;;24.40;94380.00;;;;7396243;19;20168;-73
2022/07/20 00:23:57;;;;;;;10.38;6.13;;;;;24.40;94378.00;;;;7398405;19;20557;-73
2022/07/20 00:26:25;;;;;;;11.27;5.50;;;;;24.40;94374.00;;;;7393769;19;20149;-73
2022/07/20 00:28:59;;;;;;;7.38;5.65;;;;;24.40;94374.00;;;;7395472;19;20129;-72
2022/07/20 00:31:26;;;;;;;10.50;6.03;;;;;24.40;94370.00;;;;7396646;19;20511;-75
2022/07/20 00:33:54;;;;;;;10.75;5.70;;;;;24.40;94374.00;;;;7398642;19;20204;-72
2022/07/20 00:36:29;;;;;;;9.55;5.80;;;;;24.30;94378.00;;;;7390852;19;20164;-73
2022/07/20 00:39:03;;;;;;;13.10;5.80;;;;;24.30;94370.00;;;;7396432;19;20136;-73
2022/07/20 00:41:37;;;;;;;7.25;5.40;;;;;24.30;94372.00;;;;7396797;19;20128;-71
2022/07/20 00:44:07;;;;;;;9.75;5.50;;;;;24.30;94371.00;;;;7396190;19;20137;-72
2022/07/20 00:46:40;;;;;;;9.45;5.82;;;;;24.20;94375.00;;;;7395352;19;20622;-73
2022/07/20 00:49:14;;;;;;;11.68;5.65;;;;;24.20;94364.00;;;;7396464;19;20127;-74
2022/07/20 00:51:50;;;;;;;10.15;5.75;;;;;24.30;94370.00;;;;7394075;19;20145;-71
2022/07/20 00:54:31;;;;;;;10.82;5.70;;;;;24.40;94360.00;;;;7393810;19;20178;-71
2022/07/20 00:57:00;;;;;;;12.35;6.15;;;;;24.40;94363.00;;;;7395040;19;20125;-73
2022/07/20 00:59:36;;;;;;;9.85;5.50;;;;;24.40;94367.00;;;;7396131;19;20152;-71
2022/07/20 01:02:03;;;;;;;9.75;5.70;;;;;24.50;94366.00;;;;7395256;19;20140;-73
2022/07/20 01:04:31;;;;;;;6.60;5.45;;;;;24.40;94361.00;;;;7395040;19;20121;-74
2022/07/20 01:07:06;;;;;;;12.90;6.40;;;;;24.40;94367.00;;;;7394846;19;20168;-73
2022/07/20 01:09:34;;;;;;;8.55;5.57;;;;;24.30;94362.00;;;;7395404;19;20125;-73
2022/07/20 01:12:01;;;;;;;8.93;6.35;;;;;24.30;94355.00;;;;7393734;19;20172;-74
2022/07/20 01:14:36;;;;;;;12.07;6.03;;;;;24.10;94356.00;;;;7393735;19;20164;-73
2022/07/20 01:17:04;;;;;;;9.65;5.50;;;;;24.10;94348.00;;;;7394247;19;20487;-75
2022/07/20 01:19:31;;;;;;;10.05;5.88;;;;;24.20;94348.00;;;;7397543;19;20129;-74
2022/07/20 01:22:05;;;;;;;11.00;5.60;;;;;24.20;94345.00;;;;7394906;19;20149;-76
2022/07/20 01:24:33;;;;;;;9.05;6.20;;;;;24.20;94352.00;;;;7393403;19;20137;-74
2022/07/20 01:27:05;;;;;;;7.68;5.60;;;;;24.30;94345.00;;;;7392938;19;20136;-73
2022/07/20 01:29:40;;;;;;;10.23;5.70;;;;;24.30;94347.00;;;;7394220;19;20144;-71
2022/07/20 01:32:07;;;;;;;10.68;5.70;;;;;24.30;94345.00;;;;7393896;19;20149;-75
2022/07/20 01:34:35;;;;;;;10.45;5.95;;;;;24.30;94343.00;;;;7394628;19;20136;-71
2022/07/20 01:37:10;;;;;;;7.32;5.80;;;;;24.30;94341.00;;;;7393857;19;20178;-73
2022/07/20 01:39:37;;;;;;;9.10;6.05;;;;;24.30;94345.00;;;;7394851;19;20535;-72
2022/07/20 01:42:05;;;;;;;8.88;5.55;;;;;24.20;94332.00;;;;7395201;19;20125;-73
2022/07/20 01:44:39;;;;;;;9.70;5.60;;;;;24.20;94334.00;;;;7391931;19;20270;-74
2022/07/20 01:47:06;;;;;;;7.88;5.32;;;;;24.10;94342.00;;;;7393011;19;20145;-74
2022/07/20 01:49:34;;;;;;;8.93;5.82;;;;;24.10;94342.00;;;;7394061;19;20194;-71
2022/07/20 01:52:14;;;;;;;7.38;5.80;;;;;24.10;94339.00;;;;7392351;19;20184;-74
2022/07/20 01:54:48;;;;;;;12.13;6.07;;;;;24.00;94343.00;;;;7392669;19;20687;-73
2022/07/20 01:57:23;;;;;;;11.95;5.80;;;;;24.00;94346.00;;;;7393376;19;20159;-74
2022/07/20 01:59:50;;;;;;;8.57;5.70;;;;;23.80;94351.00;;;;7393982;19;20567;-75
2022/07/20 02:02:18;;;;;;;11.90;5.85;;;;;23.70;94349.00;;;;7393856;19;20145;-72
2022/07/20 02:04:53;;;;;;;7.78;5.63;;;;;23.80;94350.00;;;;7393493;19;20144;-73
2022/07/20 02:07:20;;;;;;;10.40;6.03;;;;;23.70;94342.00;;;;7394650;19;20121;-71
2022/07/20 02:09:48;;;;;;;9.05;5.72;;;;;23.60;94339.00;;;;7395855;19;20137;-72
2022/07/20 02:12:21;;;;;;;11.75;5.72;;;;;23.50;94330.00;;;;7389336;19;20172;-74
2022/07/20 02:14:49;;;;;;;8.43;5.57;;;;;23.40;94344.00;;;;7391110;19;20284;-73
2022/07/20 02:17:19;;;;;;;7.90;5.80;;;;;23.40;94346.00;;;;7393864;19;20169;-71
2022/07/20 02:19:53;;;;;;;9.13;6.32;;;;;23.50;94345.00;;;;7395533;19;20116;-71
2022/07/20 02:22:20;;;;;;;9.18;6.45;;;;;23.50;94339.00;;;;7395027;19;20730;-72
2022/07/20 02:24:48;;;;;;;10.02;6.35;;;;;23.60;94345.00;;;;7392167;19;20491;-72
2022/07/20 02:27:22;;;;;;;15.15;6.15;;;;;23.70;94345.00;;;;7391435;19;20637;-73
2022/07/20 02:29:49;;;;;;;7.07;6.10;;;;;23.60;94338.00;;;;7392855;19;20148;-73
2022/07/20 02:32:17;;;;;;;7.57;5.65;;;;;23.60;94351.00;;;;7393448;19;20538;-74
2022/07/20 02:34:50;;;;;;;11.90;6.18;;;;;23.60;94346.00;;;;7391843;19;20166;-74
2022/07/20 02:37:18;;;;;;;10.48;5.63;;;;;23.60;94346.00;;;;7393409;19;20132;-73
2022/07/20 02:39:46;;;;;;;6.90;5.60;;;;;23.50;94349.00;;;;7394122;19;20136;-73
2022/07/20 02:42:19;;;;;;;9.35;5.78;;;;;23.40;94344.00;;;;7393227;19;20156;-72
2022/07/20 02:44:47;;;;;;;8.45;5.68;;;;;23.50;94343.00;;;;7390510;19;20209;-72
2022/07/20 02:47:14;;;;;;;9.00;6.97;;;;;23.60;94340.00;;;;7392375;19;20137;-71
2022/07/20 02:49:49;;;;;;;8.52;6.10;;;;;23.60;94345.00;;;;7394002;19;20129;-72
2022/07/20 02:52:22;;;;;;;10.38;6.47;;;;;23.50;94349.00;;;;7392552;19;20156;-70
2022/07/20 02:55:04;;;;;;;8.65;5.93;;;;;23.30;94336.00;;;;7391542;19;20160;-71
2022/07/20 02:57:31;;;;;;;7.63;5.68;;;;;23.50;94332.00;;;;7388063;19;20173;-73
2022/07/20 03:00:07;;;;;;;11.00;5.65;;;;;23.50;94330.00;;;;7390134;19;20594;-72
2022/07/20 03:02:35;;;;;;;8.77;5.82;;;;;23.60;94333.00;;;;7390415;19;20220;-74
2022/07/20 03:05:03;;;;;;;8.68;5.72;;;;;23.60;94329.00;;;;7391057;19;20140;-73
2022/07/20 03:07:37;;;;;;;9.13;5.90;;;;;23.60;94331.00;;;;7391752;19;20164;-72
2022/07/20 03:10:05;;;;;;;8.52;5.90;;;;;23.70;94334.00;;;;7392566;19;20590;-73
2022/07/20 03:12:33;;;;;;;7.65;5.78;;;;;23.70;94331.00;;;;7387942;19;20611;-73
2022/07/20 03:15:07;;;;;;;8.65;5.68;;;;;23.80;94335.00;;;;7392242;19;20151;-72
2022/07/20 03:17:51;;;;;;;9.60;5.68;;;;;23.70;94342.00;;;;7392731;19;20493;-73
2022/07/20 03:20:29;;;;;;;14.27;6.00;;;;;23.90;94347.00;;;;7390077;19;20607;-73
2022/07/20 03:22:57;;;;;;;8.27;5.60;;;;;23.80;94344.00;;;;7389790;19;20204;-72
2022/07/20 03:25:28;;;;;;;9.63;5.82;;;;;23.80;94338.00;;;;7390841;19;20460;-73
2022/07/20 03:28:03;;;;;;;9.75;5.55;;;;;23.90;94340.00;;;;7393953;19;20139;-72
2022/07/20 03:30:31;;;;;;;10.50;5.43;;;;;24.00;94342.00;;;;7389560;19;20606;-72
2022/07/20 03:32:59;;;;;;;8.90;5.78;;;;;24.10;94338.00;;;;7388697;19;20152;-73
2022/07/20 03:35:33;;;;;;;6.97;5.70;;;;;24.10;94334.00;;;;7392312;19;20141;-72
2022/07/20 03:38:00;;;;;;;7.60;5.25;;;;;24.20;94345.00;;;;7391236;19;20591;-73
2022/07/20 03:40:28;;;;;;;11.38;6.22;;;;;24.10;94340.00;;;;7388296;19;20149;-73
2022/07/20 03:43:03;;;;;;;8.55;5.43;;;;;24.00;94345.00;;;;7392765;19;20125;-72
2022/07/20 03:45:31;;;;;;;7.93;5.45;;;;;23.90;94336.00;;;;7391747;19;20133;-70
2022/07/20 03:47:58;;;;;;;9.45;5.30;;;;;23.60;94335.00;;;;7392341;19;20152;-72
2022/07/20 03:50:33;;;;;;;6.60;5.40;;;;;23.60;94333.00;;;;7389849;19;20140;-71
2022/07/20 03:53:06;;;;;;;11.55;6.05;;;;;23.50;94337.00;;;;7387967;19;20180;-73
2022/07/20 03:55:51;;;;;;;10.60;5.45;;;;;23.40;94336.00;;;;7387434;19;20137;-73
2022/07/20 03:58:18;;;;;;;7.43;5.32;;;;;23.60;94327.00;;;;7392362;19;20171;-75
2022/07/20 04:00:53;;;;;;;8.38;5.53;;;;;23.60;94333.00;;;;7388419;19;20195;-72
2022/07/20 04:03:20;;;;;;;9.10;5.97;;;;;23.60;94340.00;;;;7389892;19;20630;-72
2022/07/20 04:05:48;;;;;;;12.02;5.82;;;;;23.60;94329.00;;;;7391956;19;20507;-71
2022/07/20 04:08:24;;;;;;;12.50;6.15;;;;;23.40;94333.00;;;;7387630;19;20132;-71
2022/07/20 04:10:52;;;;;;;8.93;5.40;;;;;23.40;94341.00;;;;7393164;19;20184;-71
2022/07/20 04:13:20;;;;;;;7.00;5.28;;;;;23.40;94343.00;;;;7395806;19;20627;-72
2022/07/20 04:15:53;;;;;;;6.90;5.47;;;;;23.60;94334.00;;;;7397743;19;20715;-72
2022/07/20 04:18:22;;;;;;;7.18;5.78;;;;;23.50;94338.00;;;;7394204;19;20615;-73
2022/07/20 04:20:49;;;;;;;7.38;5.63;;;;;23.60;94335.00;;;;7398154;19;20145;-73
2022/07/20 04:23:24;;;;;;;5.20;4.72;;;;;23.50;94330.00;;;;7396279;19;20156;-72
2022/07/20 04:25:51;;;;;;;9.25;5.88;;;;;23.50;94329.00;;;;7398762;19;20164;-73
2022/07/20 04:28:20;;;;;;;9.20;4.95;;;;;23.50;94329.00;;;;7398930;19;20128;-72
2022/07/20 04:30:54;;;;;;;9.10;5.75;;;;;23.50;94332.00;;;;7392123;19;20148;-71
2022/07/20 04:33:21;;;;;;;11.05;5.00;;;;;23.30;94335.00;;;;7395255;19;20163;-72
2022/07/20 04:35:49;;;;;;;7.60;5.40;;;;;23.20;94330.00;;;;7397245;19;20216;-71
2022/07/20 04:38:23;;;;;;;11.95;5.53;;;;;23.10;94341.00;;;;7394769;19;20132;-73
2022/07/20 04:40:50;;;;;;;8.55;5.47;;;;;23.10;94335.00;;;;7395551;19;20136;-70
2022/07/20 04:43:24;;;;;;;6.07;5.22;;;;;23.10;94341.00;;;;7396455;19;20603;-71
2022/07/20 04:45:59;;;;;;;10.75;6.05;;;;;23.20;94333.00;;;;7396059;19;20139;-72
2022/07/20 04:48:26;;;;;;;6.75;5.47;;;;;23.30;94337.00;;;;7392863;19;20187;-72
2022/07/20 04:50:54;;;;;;;11.75;5.60;;;;;23.30;94336.00;;;;7395267;19;20635;-70
2022/07/20 04:53:41;;;;;;;11.80;5.30;;;;;23.60;94328.00;;;;7394194;19;20152;-73
2022/07/20 04:56:18;;;;;;;8.40;4.95;;;;;23.70;94336.00;;;;7391442;19;20904;-74
2022/07/20 04:58:55;;;;;;;8.85;5.40;;;;;23.80;94335.00;;;;7395947;19;20601;-74
2022/07/20 05:01:25;;;;;;;6.07;5.03;;;;;23.90;94325.00;;;;7395320;19;20135;-74
2022/07/20 05:03:59;;;;;;;7.13;5.25;;;;;24.10;94326.00;;;;7397042;19;20145;-74
2022/07/20 05:06:26;;;;;;;7.35;5.28;;;;;24.20;94326.00;;;;7392433;19;20145;-71
2022/07/20 05:08:54;;;;;;;7.47;4.97;;;;;24.50;94328.00;;;;7396506;19;20141;-73
2022/07/20 05:11:29;;;;;;;14.05;5.70;;;;;24.60;94336.00;;;;7393822;19;20171;-71
2022/07/20 05:13:57;;;;;;;8.07;4.97;;;;;24.70;94329.00;;;;7392606;19;20776;-72
2022/07/20 05:16:25;;;;;;;7.03;4.60;;;;;25.00;94326.00;;;;7393677;19;20212;-72
2022/07/20 05:19:00;;;;;;;7.28;4.68;;;;;25.40;94329.00;;;;7395957;19;20677;-74
2022/07/20 05:21:28;;;;;;;5.85;4.75;;;;;25.70;94326.00;;;;7392296;19;20646;-72
2022/07/20 05:23:55;;;;;;;9.65;4.90;;;;;26.10;94333.00;;;;7393706;19;20129;-73
2022/07/20 05:26:30;;;;;;;7.20;4.57;;;;;26.40;94322.00;;;;7394069;19;20924;-72
2022/07/20 05:28:58;;;;;;;6.75;4.32;;;;;26.50;94325.00;;;;7396031;19;20125;-72
2022/07/20 05:31:28;;;;;;;7.90;4.88;;;;;26.60;94336.00;;;;7392370;19;20158;-72
2022/07/20 05:34:02;;;;;;;6.97;4.43;;;;;26.70;94337.00;;;;7393657;19;20153;-73
2022/07/20 05:36:30;;;;;;;7.45;4.88;;;;;26.80;94339.00;;;;7392480;19;20149;-71
2022/07/20 05:39:12;;;;;;;5.45;4.95;;;;;26.80;94341.00;;;;7392752;19;20148;-75
2022/07/20 05:41:54;;;;;;;7.20;4.35;;;;;27.00;94338.00;;;;7395794;19;20137;-74
2022/07/20 05:44:22;;;;;;;9.85;4.60;;;;;27.10;94331.00;;;;7392467;19;20156;-72
2022/07/20 05:47:02;;;;;;;10.18;4.82;;;;;27.40;94341.00;;;;7394153;19;20507;-71
2022/07/20 05:49:30;;;;;;;5.45;4.22;;;;;27.40;94345.00;;;;7393190;19;20149;-72
2022/07/20 05:52:05;;;;;;;6.47;4.18;;;;;27.60;94355.00;;;;7394079;19;20227;-70
2022/07/20 05:54:43;;;;;;;10.45;4.47;;;;;27.80;94342.00;;;;7393226;19;20158;-69
2022/07/20 05:57:17;;;;;;;6.90;4.80;;;;;27.90;94354.00;;;;7393930;19;20468;-70
2022/07/20 05:59:45;;;;;;;5.47;4.68;;;;;28.00;94354.00;;;;7391083;19;20164;-70
2022/07/20 06:02:12;;;;;;;6.60;4.47;;;;;28.20;94357.00;;;;7392478;19;20149;-72
2022/07/20 06:04:49;;;;;;;6.53;4.70;;;;;28.40;94355.00;;;;7393648;19;20163;-72
2022/07/20 06:07:22;;;;;;;9.82;4.57;;;;;28.60;94355.00;;;;7393238;19;20180;-72
2022/07/20 06:09:57;;;;;;;6.55;4.85;;;;;28.90;94365.00;;;;7392906;19;20216;-73
2022/07/20 06:12:25;;;;;;;10.23;4.80;;;;;29.10;94371.00;;;;7392165;19;20137;-72
2022/07/20 06:14:53;;;;;;;5.30;4.65;;;;;29.10;94367.00;;;;7391202;19;20148;-73
2022/07/20 06:17:40;;;;;;;5.95;4.38;;;;;29.30;94364.00;;;;7392612;19;20135;-72
2022/07/20 06:20:17;;;;;;;9.13;4.82;;;;;29.40;94374.00;;;;7394604;19;20532;-74
2022/07/20 06:22:55;;;;;;;10.13;5.18;;;;;29.80;94381.00;;;;7394545;19;20220;-74
2022/07/20 06:25:25;;;;;;;8.80;4.80;;;;;30.00;94374.00;;;;7392509;19;20164;-72
2022/07/20 06:28:03;;;;;;;6.03;4.35;;;;;30.30;94381.00;;;;7392574;19;20168;-72
2022/07/20 06:30:33;;;;;;;6.05;4.63;;;;;30.40;94380.00;;;;7392829;19;20149;-71
2022/07/20 06:33:07;;;;;;;9.95;4.93;;;;;30.40;94380.00;;;;7389572;19;20128;-72
2022/07/20 06:35:40;;;;;;;7.35;4.57;;;;;30.40;94377.00;;;;7391590;19;20148;-71
2022/07/20 06:38:16;;;;;;;7.35;4.53;;;;;30.40;94377.00;;;;7392875;19;20235;-70
2022/07/20 06:40:47;;;;;;;7.22;4.68;;;;;30.60;94373.00;;;;7393345;19;20161;-72
2022/07/20 06:43:17;;;;;;;5.63;4.38;;;;;30.60;94372.00;;;;7392612;19;20140;-71
2022/07/20 06:45:52;;;;;;;5.00;4.50;;;;;30.50;94383.00;;;;7392784;19;20172;-72
2022/07/20 06:48:21;;;;;;;7.75;4.63;;;;;30.60;94382.00;;;;7392688;19;20171;-73
2022/07/20 06:50:49;;;;;;;6.85;3.85;;;;;30.90;94379.00;;;;7392909;19;20155;-71
2022/07/20 06:53:34;;;;;;;5.55;3.70;;;;;31.10;94375.00;;;;7386820;19;20235;-71
2022/07/20 06:56:09;;;;;;;5.82;3.90;;;;;30.90;94384.00;;;;7390027;19;20594;-73
2022/07/20 06:58:43;;;;;;;3.90;3.50;;;;;30.90;94387.00;;;;7392001;19;20141;-71
2022/07/20 07:01:13;;;;;;;5.85;3.67;;;;;31.20;94388.00;;;;7393312;19;20507;-73
2022/07/20 07:03:41;;;;;;;4.95;4.40;;;;;31.40;94380.00;;;;7389622;19;20174;-72
2022/07/20 07:06:16;;;;;;;6.65;4.45;;;;;31.70;94387.00;;;;7392439;19;20219;-72
2022/07/20 07:08:47;;;;;;;7.50;5.25;;;;;31.80;94389.00;;;;7391387;19;20682;-71
2022/07/20 07:11:16;;;;;;;6.20;4.10;;;;;32.00;94389.00;;;;7391673;19;20175;-71
2022/07/20 07:13:51;;;;;;;5.47;3.60;;;;;32.10;94385.00;;;;7389955;19;20144;-72
2022/07/20 07:16:20;;;;;;;4.45;3.88;;;;;31.90;94383.00;;;;7392604;19;20174;-72
2022/07/20 07:18:49;;;;;;;5.22;3.80;;;;;32.00;94383.00;;;;7390907;19;20148;-70
2022/07/20 07:21:24;;;;;;;9.95;3.72;;;;;32.40;94382.00;;;;7391235;19;20120;-73
2022/07/20 07:23:53;;;;;;;8.27;4.13;;;;;32.20;94388.00;;;;7391712;19;20222;-75
2022/07/20 07:26:22;;;;;;;7.40;4.00;;;;;32.00;94399.00;;;;7390296;19;20637;-71
2022/07/20 07:29:00;;;;;;;7.38;3.63;;;;;31.60;94395.00;;;;7391035;19;20148;-73
2022/07/20 07:31:31;;;;;;;7.28;3.95;;;;;31.70;94390.00;;;;7390845;19;20688;-70
2022/07/20 07:34:09;;;;;;;4.55;3.67;;;;;32.10;94379.00;;;;7388975;19;20232;-72
2022/07/20 07:36:39;;;;;;;7.05;3.75;;;;;32.40;94391.00;;;;7390885;19;20153;-71
2022/07/20 07:39:14;;;;;;;7.72;4.07;;;;;32.20;94392.00;;;;7390951;19;20153;-70
2022/07/20 07:41:43;;;;;;;7.85;3.90;;;;;32.40;94401.00;;;;7391988;19;20133;-73
2022/07/20 07:44:11;;;;;;;5.93;3.78;;;;;32.30;94396.00;;;;7389439;19;20599;-72
2022/07/20 07:46:47;;;;;;;4.40;3.53;;;;;32.20;94392.00;;;;7398232;19;20620;-71
2022/07/20 07:49:17;;;;;;;10.23;4.28;;;;;32.50;94395.00;;;;7398533;19;20140;-73
2022/07/20 07:51:48;;;;;;;5.13;3.42;;;;;32.60;94387.00;;;;7398458;19;20148;-72
2022/07/20 07:54:41;;;;;;;5.82;3.47;;;;;32.80;94386.00;;;;7393267;19;20220;-72
2022/07/20 07:57:16;;;;;;;5.75;4.10;;;;;32.90;94389.00;;;;7396724;19;20143;-72
2022/07/20 07:59:51;;;;;;;7.47;4.47;;;;;33.10;94388.00;;;;7397754;19;20642;-70
2022/07/20 08:02:19;;;;;;;8.50;3.92;;;;;33.10;94394.00;;;;7398022;19;20125;-70
2022/07/20 08:04:47;;;;;;;5.40;4.00;;;;;33.20;94396.00;;;;7396346;19;20137;-69
2022/07/20 08:07:21;;;;;;;5.93;4.47;;;;;33.20;94401.00;;;;7398824;19;20617;-70
2022/07/20 08:09:49;;;;;;;6.15;4.55;;;;;33.70;94393.00;;;;7397879;19;20532;-71
2022/07/20 08:12:17;;;;;;;12.45;3.92;;;;;33.80;94399.00;;;;7394580;19;20155;-72
2022/07/20 08:14:53;;;;;;;6.15;4.10;;;;;34.10;94401.00;;;;7393981;19;20152;-71
2022/07/20 08:17:21;;;;;;;7.63;4.00;;;;;33.70;94404.00;;;;7395156;19;20660;-72
2022/07/20 08:19:52;;;;;;;6.57;4.13;;;;;34.10;94402.00;;;;7394255;19;20148;-72
2022/07/20 08:22:26;;;;;;;5.25;3.55;;;;;34.00;94406.00;;;;7395426;19;20141;-72
2022/07/20 08:24:55;;;;;;;6.45;4.10;;;;;33.50;94408.00;;;;7396419;19;20173;-73
2022/07/20 08:27:26;;;;;;;8.20;4.50;;;;;33.50;94402.00;;;;7397395;19;20136;-73
2022/07/20 08:30:02;;;;;;;8.43;4.32;;;;;33.40;94415.00;;;;7397937;19;20623;-74
2022/07/20 08:32:30;;;;;;;9.43;4.38;;;;;33.20;94418.00;;;;7394644;19;20193;-74
2022/07/20 08:34:59;;;;;;;7.43;4.22;;;;;33.60;94416.00;;;;7391689;19;20216;-75
2022/07/20 08:37:37;;;;;;;5.60;4.35;;;;;34.10;94410.00;;;;7396283;19;20144;-73
2022/07/20 08:40:06;;;;;;;7.90;4.15;;;;;34.00;94413.00;;;;7395929;19;20614;-73
2022/07/20 08:42:41;;;;;;;9.20;4.35;;;;;33.90;94416.00;;;;7395782;19;20613;-72
2022/07/20 08:45:10;;;;;;;5.40;4.05;;;;;33.60;94422.00;;;;7397834;19;20216;-72
2022/07/20 08:47:41;;;;;;;6.22;4.35;;;;;34.00;94416.00;;;;7396358;19;20160;-73
2022/07/20 08:50:27;;;;;;;9.40;4.47;;;;;34.30;94422.00;;;;7395996;19;20131;-72
2022/07/20 08:52:56;;;;;;;6.15;4.47;;;;;34.50;94429.00;;;;7398721;19;20143;-72
2022/07/20 08:55:37;;;;;;;10.73;4.05;;;;;34.50;94434.00;;;;7395546;19;20128;-73
2022/07/20 08:58:05;;;;;;;4.70;3.83;;;;;34.60;94429.00;;;;7395577;19;20196;-74
2022/07/20 09:00:42;;;;;;;9.98;4.45;;;;;34.20;94433.00;;;;7393344;19;20603;-72
2022/07/20 09:03:10;;;;;;;6.45;4.70;;;;;34.40;94420.00;;;;7396247;19;20181;-73
2022/07/20 09:05:40;;;;;;;8.77;5.10;;;;;34.40;94425.00;;;;7393358;19;20144;-72
2022/07/20 09:08:19;;;;;;;9.98;5.00;;;;;34.70;94435.00;;;;7394394;19;20164;-72
2022/07/20 09:10:47;;;;;;;7.85;5.22;;;;;34.60;94434.00;;;;7393745;19;20152;-73
2022/07/20 09:13:34;;;;;;;6.53;4.80;;;;;34.90;94433.00;;;;7392368;19;20140;-75
2022/07/20 09:16:02;;;;;;;7.15;4.82;;;;;34.90;94434.00;;;;7395591;19;20642;-72
2022/07/20 09:18:37;;;;;;;6.40;4.97;;;;;35.20;94436.00;;;;7394545;19;20154;-72
2022/07/20 09:21:10;;;;;;;8.30;4.70;;;;;34.80;94438.00;;;;7394739;19;20725;-72
2022/07/20 09:23:48;;;;;;;5.43;4.93;;;;;35.10;94433.00;;;;7395196;19;20606;-73
2022/07/20 09:26:17;;;;;;;8.00;5.10;;;;;35.00;94435.00;;;;7396389;19;20256;-72
2022/07/20 09:28:54;;;;;;;7.68;4.78;;;;;35.00;94437.00;;;;7395265;19;20128;-71
2022/07/20 09:31:34;;;;;;;8.00;5.07;;;;;34.80;94432.00;;;;7395601;19;20124;-73
2022/07/20 09:34:14;;;;;;;10.13;5.05;;;;;34.90;94421.00;;;;7394440;19;20156;-74
2022/07/20 09:36:46;;;;;;;7.53;4.55;;;;;35.30;94418.00;;;;7393699;19;20540;-71
2022/07/20 09:39:22;;;;;;;7.93;5.00;;;;;35.10;94413.00;;;;7395493;19;20562;-72
2022/07/20 09:41:57;;;;;;;8.82;5.20;;;;;35.30;94415.00;;;;7392546;19;20582;-75
2022/07/20 09:44:31;;;;;;;8.88;5.20;;;;;35.90;94418.00;;;;7393802;19;20162;-71
2022/07/20 09:47:10;;;;;;;6.18;5.45;;;;;35.60;94426.00;;;;7395280;19;20164;-72
2022/07/20 09:49:44;;;;;;;8.32;5.47;;;;;35.70;94426.00;;;;7392476;19;20244;-73
2022/07/20 09:52:16;;;;;;;13.27;5.70;;;;;35.70;94416.00;;;;7394955;19;20554;-73
2022/07/20 09:55:02;;;;;;;7.28;5.45;;;;;35.70;94427.00;;;;7392939;19;20670;-73
2022/07/20 09:57:36;;;;;;;6.93;5.20;;;;;35.90;94427.00;;;;7394301;19;20128;-72
2022/07/20 10:00:06;;;;;;;8.98;5.15;;;;;36.10;94425.00;;;;7395031;19;20629;-73
2022/07/20 10:02:34;;;;;;;7.22;5.22;;;;;35.60;94424.00;;;;7391854;19;20144;-73
2022/07/20 10:05:09;;;;;;;7.43;5.40;;;;;36.10;94427.00;;;;7393486;19;20644;-73
2022/07/20 10:07:38;;;;;;;9.60;5.90;;;;;36.10;94419.00;;;;7393343;19;20163;-73
2022/07/20 10:10:06;;;;;;;11.32;5.88;;;;;36.00;94421.00;;;;7392348;19;20120;-73
2022/07/20 10:12:40;;;;;;;6.35;5.75;;;;;36.00;94426.00;;;;7393868;19;20163;-74
2022/07/20 10:15:14;;;;;;;6.38;5.75;;;;;36.10;94425.00;;;;7396517;19;20516;-71
2022/07/20 10:17:49;;;;;;;13.10;6.28;;;;;36.40;94426.00;;;;7395057;19;20166;-73
2022/07/20 10:20:34;;;;;;;11.48;6.63;;;;;36.50;94427.00;;;;7395360;19;20144;-75
2022/07/20 10:23:25;;;;;;;6.88;6.15;;;;;36.30;94427.00;;;;7395069;19;20170;-74
2022/07/20 10:25:53;;;;;;;9.48;6.53;;;;;35.70;94423.00;;;;7391842;19;20187;-72
2022/07/20 10:28:33;;;;;;;8.70;6.32;;;;;35.80;94436.00;;;;7391445;19;20163;-73
2022/07/20 10:31:08;;;;;;;11.65;6.50;;;;;35.90;94423.00;;;;7393786;19;20503;-71
2022/07/20 10:33:43;;;;;;;7.25;6.45;;;;;36.40;94426.00;;;;7392067;19;20492;-72
2022/07/20 10:39:41;;;;;;;8.07;7.13;;;;;35.80;94435.00;;;;7395461;19;20656;-73
2022/07/20 10:42:30;;;;;;;10.80;6.85;;;;;35.70;94442.00;;;;7390839;19;20531;-72
2022/07/20 10:45:27;;;;;;;10.98;7.10;;;;;36.10;94436.00;;;;7394347;19;20224;-72
2022/07/20 10:47:57;;;;;;;15.57;7.40;;;;;35.70;94444.00;;;;7393330;19;20602;-72
2022/07/20 10:50:50;;;;;;;12.25;8.00;;;;;35.90;94433.00;;;;7391126;19;20215;-71
2022/07/20 10:53:31;;;;;;;8.18;7.32;;;;;36.00;94433.00;;;;7387637;19;20618;-72
2022/07/20 10:56:28;;;;;;;9.52;7.05;;;;;36.30;94445.00;;;;7389324;19;20142;-74
2022/07/20 10:59:01;;;;;;;10.23;7.38;;;;;35.80;94442.00;;;;7391849;19;20159;-73
2022/07/20 11:01:40;;;;;;;13.10;7.80;;;;;36.30;94441.00;;;;7389473;19;20610;-72
2022/07/20 11:04:15;;;;;;;10.25;7.25;;;;;35.10;94465.00;;;;7389840;19;20145;-72
2022/07/20 11:06:52;;;;;;;9.45;7.43;;;;;34.10;94473.00;;;;7388978;19;20223;-72
2022/07/20 11:09:30;;;;;;;10.13;7.65;;;;;33.40;94472.00;;;;7391757;19;20608;-71
2022/07/20 11:12:08;;;;;;;13.68;8.02;;;;;32.50;94471.00;;;;7388833;19;20196;-73
2022/07/20 11:14:53;;;;;;;9.23;8.10;;;;;32.00;94465.00;;;;7391766;19;20140;-71
2022/07/20 11:17:33;;;;;;;12.00;8.50;;;;;32.20;94467.00;;;;7390838;19;20627;-70
2022/07/20 11:20:09;;;;;;;11.35;8.25;;;;;31.80;94463.00;;;;7396794;19;20471;-71
2022/07/20 11:22:44;;;;;;;14.13;9.10;;;;;31.30;94469.00;;;;7398734;19;20653;-70
2022/07/20 11:25:12;;;;;;;10.57;7.78;;;;;31.20;94468.00;;;;7401546;19;20898;-71
2022/07/20 11:27:40;;;;;;;14.13;9.45;;;;;30.60;94467.00;;;;7398612;19;20151;-73
2022/07/20 11:30:17;;;;;;;10.55;9.45;;;;;30.40;94464.00;;;;7397242;19;20171;-70
2022/07/20 11:32:54;;;;;;;13.32;10.23;;;;;30.40;94467.00;;;;7400750;19;20145;-75
2022/07/20 11:35:29;;;;;;;12.07;9.90;;;;;30.50;94460.00;;;;7397720;19;20141;-71
2022/07/20 11:37:57;;;;;;;11.88;10.13;;;;;30.40;94445.00;;;;7398401;19;20153;-72
2022/07/20 11:40:26;;;;;;;14.25;11.13;;;;;31.00;94456.00;;;;7392621;19;20139;-73
2022/07/20 11:43:08;;;;;;;13.02;11.45;;;;;31.20;94463.00;;;;7383639;19;20159;-72
2022/07/20 11:45:37;;;;;;;24.23;12.60;;;;;31.50;94448.00;;;;7392407;19;20156;-73
2022/07/20 11:48:20;;;;;;;21.05;13.80;;;;;30.80;94461.00;;;;7393325;19;20151;-72
2022/07/20 11:51:09;;;;;;;16.42;13.18;;;;;30.40;94461.00;;;;7392722;19;20192;-72
2022/07/20 11:53:49;;;;;;;17.92;12.95;;;;;29.80;94464.00;;;;7389139;19;20155;-73
2022/07/20 11:56:27;;;;;;;14.18;12.75;;;;;29.70;94454.00;;;;7385280;19;20163;-72
2022/07/20 11:59:03;;;;;;;21.38;13.45;;;;;29.70;94458.00;;;;7380367;19;20140;-73
2022/07/20 12:01:35;;;;;;;17.63;14.20;;;;;29.70;94455.00;;;;7386945;19;20143;-73
2022/07/20 12:04:12;;;;;;;24.40;13.55;;;;;29.70;94433.00;;;;7388249;19;20180;-73
2022/07/20 12:06:42;;;;;;;18.15;13.07;;;;;31.00;94438.00;;;;7386787;19;20169;-73
2022/07/20 12:09:30;;;;;;;17.17;13.13;;;;;31.00;94434.00;;;;7384119;19;20147;-72
2022/07/20 12:12:05;;;;;;;17.80;13.20;;;;;30.80;94458.00;;;;7387956;19;20803;-73
2022/07/20 12:14:43;;;;;;;15.88;13.40;;;;;30.00;94458.00;;;;7390152;19;20747;-73
2022/07/20 12:17:30;;;;;;;15.52;12.95;;;;;30.10;94459.00;;;;7389071;19;20143;-72
2022/07/20 12:20:04;;;;;;;17.92;13.27;;;;;29.70;94458.00;;;;7388670;19;20216;-72
2022/07/20 12:22:48;;;;;;;15.88;13.32;;;;;29.50;94483.00;;;;7389514;19;20619;-72
2022/07/20 12:25:34;;;;;;;19.17;14.52;;;;;29.30;94480.00;;;;7389549;19;20168;-71
2022/07/20 12:28:02;;;;;;;21.00;13.77;;;;;29.10;94475.00;;;;7386240;19;20133;-75
2022/07/20 12:31:17;;;;;;;16.73;13.18;;;;;28.60;94477.00;;;;7389442;19;20144;-72
2022/07/20 12:34:03;;;;;;;17.35;12.60;;;;;28.40;94478.00;;;;7391897;19;20137;-74
2022/07/20 12:36:42;;;;;;;18.95;12.50;;;;;28.40;94475.00;;;;7389332;19;20137;-71
2022/07/20 12:39:12;;;;;;;18.92;13.50;;;;;28.50;94468.00;;;;7388488;19;20599;-73
2022/07/20 12:42:08;;;;;;;15.65;13.35;;;;;28.50;94480.00;;;;7391243;19;20492;-74
2022/07/20 12:44:59;;;;;;;19.73;13.55;;;;;28.40;94488.00;;;;7388817;19;20133;-73
2022/07/20 12:47:35;;;;;;;14.93;13.18;;;;;28.50;94484.00;;;;7389528;19;20166;-71